sensor_id;sensor_type;location;lat;lon;timestamp;temperature;humidity
14783;DHT22;7483;50.498;12.138;2022-12-11T00:01:13;0.80;99.90
14783;DHT22;7483;50.498;12.138;2022-12-11T00:03:44;0.80;99.90
14783;DHT22;7483;50.498;12.138;2022-12-11T00:06:17;0.80;99.90
14783;DHT22;7483;50.498;12.138;2022-12-11T00:08:49;0.80;99.90
14783;DHT22;7483;50.498;12.138;2022-12-11T00:11:18;0.80;99.90
14783;DHT22;7483;50.498;12.138;2022-12-11T00:13:48;0.80;99.90
14783;DHT22;7483;50.498;12.138;2022-12-11T00:16:16;0.80;99.90
14783;DHT22;7483;50.498;12.138;2022-12-11T00:18:52;0.80;99.90
14783;DHT22;7483;50.498;12.138;2022-12-11T00:21:21;0.90;99.90
14783;DHT22;7483;50.498;12.138;2022-12-11T00:23:49;0.90;99.90
14783;DHT22;7483;50.498;12.138;2022-12-11T00:26:17;0.90;99.90
14783;DHT22;7483;50.498;12.138;2022-12-11T00:28:46;0.80;99.90
14783;DHT22;7483;50.498;12.138;2022-12-11T00:31:16;0.80;99.90
14783;DHT22;7483;50.498;12.138;2022-12-11T00:33:45;0.70;99.90
14783;DHT22;7483;50.498;12.138;2022-12-11T00:36:17;0.70;99.90
14783;DHT22;7483;50.498;12.138;2022-12-11T00:38:50;0.70;99.90
14783;DHT22;7483;50.498;12.138;2022-12-11T00:41:19;0.70;99.90
14783;DHT22;7483;50.498;12.138;2022-12-11T00:43:49;0.70;99.90
14783;DHT22;7483;50.498;12.138;2022-12-11T00:46:19;0.70;99.90
14783;DHT22;7483;50.498;12.138;2022-12-11T00:48:47;0.70;99.90
14783;DHT22;7483;50.498;12.138;2022-12-11T00:51:17;0.60;99.90
14783;DHT22;7483;50.498;12.138;2022-12-11T00:53:45;0.60;99.90
14783;DHT22;7483;50.498;12.138;2022-12-11T00:56:17;0.60;99.90
14783;DHT22;7483;50.498;12.138;2022-12-11T00:58:47;0.60;99.90
14783;DHT22;7483;50.498;12.138;2022-12-11T01:01:18;0.60;99.90
14783;DHT22;7483;50.498;12.138;2022-12-11T01:03:49;0.60;99.90
14783;DHT22;7483;50.498;12.138;2022-12-11T01:06:19;0.60;99.90
14783;DHT22;7483;50.498;12.138;2022-12-11T01:08:50;0.50;99.90
14783;DHT22;7483;50.498;12.138;2022-12-11T01:11:42;0.50;99.90
14783;DHT22;7483;50.498;12.138;2022-12-11T01:14:10;0.60;99.90
14783;DHT22;7483;50.498;12.138;2022-12-11T01:16:38;0.60;99.90
14783;DHT22;7483;50.498;12.138;2022-12-11T01:19:06;0.50;99.90
14783;DHT22;7483;50.498;12.138;2022-12-11T01:21:34;0.50;99.90
14783;DHT22;7483;50.498;12.138;2022-12-11T01:24:03;0.50;99.90
14783;DHT22;7483;50.498;12.138;2022-12-11T01:26:32;0.60;99.90
14783;DHT22;7483;50.498;12.138;2022-12-11T01:29:01;0.60;99.90
14783;DHT22;7483;50.498;12.138;2022-12-11T01:31:29;0.70;99.90
14783;DHT22;7483;50.498;12.138;2022-12-11T01:33:57;0.70;99.90
14783;DHT22;7483;50.498;12.138;2022-12-11T01:36:25;0.70;99.90
14783;DHT22;7483;50.498;12.138;2022-12-11T01:38:54;0.70;99.90
14783;DHT22;7483;50.498;12.138;2022-12-11T01:41:23;0.70;99.90
14783;DHT22;7483;50.498;12.138;2022-12-11T01:43:59;0.60;99.90
14783;DHT22;7483;50.498;12.138;2022-12-11T01:46:33;0.60;99.90
14783;DHT22;7483;50.498;12.138;2022-12-11T01:49:04;0.50;99.90
14783;DHT22;7483;50.498;12.138;2022-12-11T01:51:38;0.50;99.90
14783;DHT22;7483;50.498;12.138;2022-12-11T01:54:11;0.50;99.90
14783;DHT22;7483;50.498;12.138;2022-12-11T01:56:44;0.50;99.90
14783;DHT22;7483;50.498;12.138;2022-12-11T01:59:20;0.50;99.90
14783;DHT22;7483;50.498;12.138;2022-12-11T02:01:55;0.50;99.90
14783;DHT22;7483;50.498;12.138;2022-12-11T02:04:28;0.50;99.90
14783;DHT22;7483;50.498;12.138;2022-12-11T02:06:57;0.50;99.90
14783;DHT22;7483;50.498;12.138;2022-12-11T02:09:28;0.50;99.90
14783;DHT22;7483;50.498;12.138;2022-12-11T02:12:01;0.40;99.90
14783;DHT22;7483;50.498;12.138;2022-12-11T02:14:38;0.30;99.90
14783;DHT22;7483;50.498;12.138;2022-12-11T02:17:12;0.30;99.90
14783;DHT22;7483;50.498;12.138;2022-12-11T02:19:56;0.30;99.90
14783;DHT22;7483;50.498;12.138;2022-12-11T02:22:53;0.40;99.90
14783;DHT22;7483;50.498;12.138;2022-12-11T02:25:37;0.40;99.90
14783;DHT22;7483;50.498;12.138;2022-12-11T02:28:18;0.40;99.90
14783;DHT22;7483;50.498;12.138;2022-12-11T02:30:52;0.30;99.90
14783;DHT22;7483;50.498;12.138;2022-12-11T02:33:29;0.30;99.90
14783;DHT22;7483;50.498;12.138;2022-12-11T02:36:04;0.20;99.90
14783;DHT22;7483;50.498;12.138;2022-12-11T02:38:39;0.20;99.90
14783;DHT22;7483;50.498;12.138;2022-12-11T02:41:10;0.20;99.90
14783;DHT22;7483;50.498;12.138;2022-12-11T02:43:41;0.20;99.90
14783;DHT22;7483;50.498;12.138;2022-12-11T02:46:13;0.20;99.90
14783;DHT22;7483;50.498;12.138;2022-12-11T02:48:44;0.30;99.90
14783;DHT22;7483;50.498;12.138;2022-12-11T02:51:16;0.30;99.90
14783;DHT22;7483;50.498;12.138;2022-12-11T02:53:50;0.30;99.90
14783;DHT22;7483;50.498;12.138;2022-12-11T02:56:27;0.20;99.90
14783;DHT22;7483;50.498;12.138;2022-12-11T02:59:07;0.20;99.90
14783;DHT22;7483;50.498;12.138;2022-12-11T03:01:37;0.20;99.90
14783;DHT22;7483;50.498;12.138;2022-12-11T03:04:06;0.10;99.90
14783;DHT22;7483;50.498;12.138;2022-12-11T03:06:36;0.10;99.90
14783;DHT22;7483;50.498;12.138;2022-12-11T03:09:08;0.00;99.90
14783;DHT22;7483;50.498;12.138;2022-12-11T03:11:36;0.00;99.90
14783;DHT22;7483;50.498;12.138;2022-12-11T03:14:06;0.00;99.90
14783;DHT22;7483;50.498;12.138;2022-12-11T03:16:37;0.00;99.90
14783;DHT22;7483;50.498;12.138;2022-12-11T03:19:17;0.00;99.90
14783;DHT22;7483;50.498;12.138;2022-12-11T03:21:58;0.00;99.90
14783;DHT22;7483;50.498;12.138;2022-12-11T03:24:37;0.00;99.90
14783;DHT22;7483;50.498;12.138;2022-12-11T03:27:14;0.00;99.90
14783;DHT22;7483;50.498;12.138;2022-12-11T03:29:53;0.00;99.90
14783;DHT22;7483;50.498;12.138;2022-12-11T03:32:28;0.00;99.90
14783;DHT22;7483;50.498;12.138;2022-12-11T03:35:05;0.00;99.90
14783;DHT22;7483;50.498;12.138;2022-12-11T03:37:40;-0.10;99.90
14783;DHT22;7483;50.498;12.138;2022-12-11T03:40:13;-0.10;99.90
14783;DHT22;7483;50.498;12.138;2022-12-11T03:42:45;-0.10;99.90
14783;DHT22;7483;50.498;12.138;2022-12-11T03:45:19;-0.20;99.90
14783;DHT22;7483;50.498;12.138;2022-12-11T03:47:50;-0.20;99.90
14783;DHT22;7483;50.498;12.138;2022-12-11T03:50:21;-0.20;99.90
14783;DHT22;7483;50.498;12.138;2022-12-11T03:52:51;-0.30;99.90
14783;DHT22;7483;50.498;12.138;2022-12-11T03:55:22;-0.30;99.90
14783;DHT22;7483;50.498;12.138;2022-12-11T03:57:52;-0.30;99.90
14783;DHT22;7483;50.498;12.138;2022-12-11T04:00:21;-0.30;99.90
14783;DHT22;7483;50.498;12.138;2022-12-11T04:02:49;-0.30;99.90
14783;DHT22;7483;50.498;12.138;2022-12-11T04:05:39;-0.30;99.90
14783;DHT22;7483;50.498;12.138;2022-12-11T04:08:08;-0.40;99.90
14783;DHT22;7483;50.498;12.138;2022-12-11T04:10:37;-0.40;99.90
14783;DHT22;7483;50.498;12.138;2022-12-11T04:13:05;-0.40;99.90
14783;DHT22;7483;50.498;12.138;2022-12-11T04:15:36;-0.30;99.90
14783;DHT22;7483;50.498;12.138;2022-12-11T04:18:03;-0.40;99.90
14783;DHT22;7483;50.498;12.138;2022-12-11T04:20:52;-0.40;99.90
14783;DHT22;7483;50.498;12.138;2022-12-11T04:23:38;-0.40;99.90
14783;DHT22;7483;50.498;12.138;2022-12-11T04:26:23;-0.40;99.90
14783;DHT22;7483;50.498;12.138;2022-12-11T04:28:52;-0.40;99.90
14783;DHT22;7483;50.498;12.138;2022-12-11T04:31:21;-0.40;99.90
14783;DHT22;7483;50.498;12.138;2022-12-11T04:33:50;-0.50;99.90
14783;DHT22;7483;50.498;12.138;2022-12-11T04:36:18;-0.60;99.90
14783;DHT22;7483;50.498;12.138;2022-12-11T04:38:46;-0.50;99.90
14783;DHT22;7483;50.498;12.138;2022-12-11T04:41:15;-0.50;99.90
14783;DHT22;7483;50.498;12.138;2022-12-11T04:43:44;-0.50;99.90
14783;DHT22;7483;50.498;12.138;2022-12-11T04:46:14;-0.50;99.90
14783;DHT22;7483;50.498;12.138;2022-12-11T04:48:46;-0.40;99.90
14783;DHT22;7483;50.498;12.138;2022-12-11T04:51:23;-0.40;99.90
14783;DHT22;7483;50.498;12.138;2022-12-11T04:53:51;-0.50;99.90
14783;DHT22;7483;50.498;12.138;2022-12-11T04:56:19;-0.50;99.90
14783;DHT22;7483;50.498;12.138;2022-12-11T04:58:48;-0.50;99.90
14783;DHT22;7483;50.498;12.138;2022-12-11T05:01:18;-0.60;99.90
14783;DHT22;7483;50.498;12.138;2022-12-11T05:03:49;-0.60;99.90
14783;DHT22;7483;50.498;12.138;2022-12-11T05:06:17;-0.50;99.90
14783;DHT22;7483;50.498;12.138;2022-12-11T05:08:45;-0.50;99.90
14783;DHT22;7483;50.498;12.138;2022-12-11T05:11:14;-0.50;99.90
14783;DHT22;7483;50.498;12.138;2022-12-11T05:13:43;-0.60;99.90
14783;DHT22;7483;50.498;12.138;2022-12-11T05:16:14;-0.50;99.90
14783;DHT22;7483;50.498;12.138;2022-12-11T05:18:43;-0.50;99.90
14783;DHT22;7483;50.498;12.138;2022-12-11T05:21:14;-0.50;99.90
14783;DHT22;7483;50.498;12.138;2022-12-11T05:23:42;-0.50;99.90
14783;DHT22;7483;50.498;12.138;2022-12-11T05:26:13;-0.60;99.90
14783;DHT22;7483;50.498;12.138;2022-12-11T05:28:43;-0.60;99.90
14783;DHT22;7483;50.498;12.138;2022-12-11T05:31:13;-0.60;99.90
14783;DHT22;7483;50.498;12.138;2022-12-11T05:33:44;-0.50;99.90
14783;DHT22;7483;50.498;12.138;2022-12-11T05:36:17;-0.50;99.90
14783;DHT22;7483;50.498;12.138;2022-12-11T05:38:47;-0.50;99.90
14783;DHT22;7483;50.498;12.138;2022-12-11T05:41:17;-0.50;99.90
14783;DHT22;7483;50.498;12.138;2022-12-11T05:43:46;-0.60;99.90
14783;DHT22;7483;50.498;12.138;2022-12-11T05:46:17;-0.50;99.90
14783;DHT22;7483;50.498;12.138;2022-12-11T05:48:48;-0.60;99.90
14783;DHT22;7483;50.498;12.138;2022-12-11T05:51:19;-0.50;99.90
14783;DHT22;7483;50.498;12.138;2022-12-11T05:53:50;-0.50;99.90
14783;DHT22;7483;50.498;12.138;2022-12-11T05:56:21;-0.60;99.90
14783;DHT22;7483;50.498;12.138;2022-12-11T05:58:52;-0.60;99.90
14783;DHT22;7483;50.498;12.138;2022-12-11T06:01:23;-0.60;99.90
14783;DHT22;7483;50.498;12.138;2022-12-11T06:03:54;-0.60;99.90
14783;DHT22;7483;50.498;12.138;2022-12-11T06:06:25;-0.60;99.90
14783;DHT22;7483;50.498;12.138;2022-12-11T06:08:55;-0.60;99.90
14783;DHT22;7483;50.498;12.138;2022-12-11T06:11:25;-0.70;99.90
14783;DHT22;7483;50.498;12.138;2022-12-11T06:13:55;-0.60;99.90
14783;DHT22;7483;50.498;12.138;2022-12-11T06:16:24;-0.60;99.90
14783;DHT22;7483;50.498;12.138;2022-12-11T06:18:52;-0.70;99.90
14783;DHT22;7483;50.498;12.138;2022-12-11T06:21:27;-0.60;99.90
14783;DHT22;7483;50.498;12.138;2022-12-11T06:23:59;-0.60;99.90
14783;DHT22;7483;50.498;12.138;2022-12-11T06:26:28;-0.60;99.90
14783;DHT22;7483;50.498;12.138;2022-12-11T06:28:57;-0.60;99.90
14783;DHT22;7483;50.498;12.138;2022-12-11T06:31:25;-0.70;99.90
14783;DHT22;7483;50.498;12.138;2022-12-11T06:33:54;-0.70;99.90
14783;DHT22;7483;50.498;12.138;2022-12-11T06:36:24;-0.70;99.90
14783;DHT22;7483;50.498;12.138;2022-12-11T06:38:53;-0.70;99.90
14783;DHT22;7483;50.498;12.138;2022-12-11T06:41:22;-0.70;99.90
14783;DHT22;7483;50.498;12.138;2022-12-11T06:43:50;-0.80;99.90
14783;DHT22;7483;50.498;12.138;2022-12-11T06:46:19;-0.80;99.90
14783;DHT22;7483;50.498;12.138;2022-12-11T06:48:48;-0.90;99.90
14783;DHT22;7483;50.498;12.138;2022-12-11T06:51:18;-0.90;99.90
14783;DHT22;7483;50.498;12.138;2022-12-11T06:53:51;-0.90;99.90
14783;DHT22;7483;50.498;12.138;2022-12-11T06:56:22;-0.90;99.90
14783;DHT22;7483;50.498;12.138;2022-12-11T06:58:51;-0.90;99.90
14783;DHT22;7483;50.498;12.138;2022-12-11T07:01:21;-0.90;99.90
14783;DHT22;7483;50.498;12.138;2022-12-11T07:03:51;-0.90;99.90
14783;DHT22;7483;50.498;12.138;2022-12-11T07:06:20;-0.90;99.90
14783;DHT22;7483;50.498;12.138;2022-12-11T07:08:48;-0.90;99.90
14783;DHT22;7483;50.498;12.138;2022-12-11T07:11:19;-0.90;99.90
14783;DHT22;7483;50.498;12.138;2022-12-11T07:13:47;-1.00;99.90
14783;DHT22;7483;50.498;12.138;2022-12-11T07:16:16;-0.90;99.90
14783;DHT22;7483;50.498;12.138;2022-12-11T07:18:47;-0.90;99.90
14783;DHT22;7483;50.498;12.138;2022-12-11T07:21:16;-0.90;99.90
14783;DHT22;7483;50.498;12.138;2022-12-11T07:23:46;-0.80;99.90
14783;DHT22;7483;50.498;12.138;2022-12-11T07:26:19;-0.80;99.90
14783;DHT22;7483;50.498;12.138;2022-12-11T07:28:48;-0.80;99.90
14783;DHT22;7483;50.498;12.138;2022-12-11T07:31:20;-0.80;99.90
14783;DHT22;7483;50.498;12.138;2022-12-11T07:33:52;-0.80;99.90
14783;DHT22;7483;50.498;12.138;2022-12-11T07:36:20;-0.80;99.90
14783;DHT22;7483;50.498;12.138;2022-12-11T07:38:49;-0.80;99.90
14783;DHT22;7483;50.498;12.138;2022-12-11T07:41:18;-0.80;99.90
14783;DHT22;7483;50.498;12.138;2022-12-11T07:43:52;-0.80;99.90
14783;DHT22;7483;50.498;12.138;2022-12-11T07:46:23;-0.80;99.90
14783;DHT22;7483;50.498;12.138;2022-12-11T07:48:52;-0.80;99.90
14783;DHT22;7483;50.498;12.138;2022-12-11T07:51:23;-0.80;99.90
14783;DHT22;7483;50.498;12.138;2022-12-11T07:53:55;-0.80;99.90
14783;DHT22;7483;50.498;12.138;2022-12-11T07:56:28;-0.90;99.90
14783;DHT22;7483;50.498;12.138;2022-12-11T07:58:58;-0.80;99.90
14783;DHT22;7483;50.498;12.138;2022-12-11T08:01:28;-0.90;99.90
14783;DHT22;7483;50.498;12.138;2022-12-11T08:03:57;-0.80;99.90
14783;DHT22;7483;50.498;12.138;2022-12-11T08:06:28;-0.80;99.90
14783;DHT22;7483;50.498;12.138;2022-12-11T08:08:58;-0.80;99.90
14783;DHT22;7483;50.498;12.138;2022-12-11T08:11:29;-0.80;99.90
14783;DHT22;7483;50.498;12.138;2022-12-11T08:13:58;-0.70;99.90
14783;DHT22;7483;50.498;12.138;2022-12-11T08:16:27;-0.80;99.90
14783;DHT22;7483;50.498;12.138;2022-12-11T08:18:56;-0.70;99.90
14783;DHT22;7483;50.498;12.138;2022-12-11T08:21:26;-0.70;99.90
14783;DHT22;7483;50.498;12.138;2022-12-11T08:23:55;-0.70;99.90
14783;DHT22;7483;50.498;12.138;2022-12-11T08:26:25;-0.60;99.90
14783;DHT22;7483;50.498;12.138;2022-12-11T08:28:56;-0.60;99.90
14783;DHT22;7483;50.498;12.138;2022-12-11T08:31:25;-0.60;99.90
14783;DHT22;7483;50.498;12.138;2022-12-11T08:33:55;-0.60;99.90
14783;DHT22;7483;50.498;12.138;2022-12-11T08:36:24;-0.50;99.90
14783;DHT22;7483;50.498;12.138;2022-12-11T08:38:53;-0.50;99.90
14783;DHT22;7483;50.498;12.138;2022-12-11T08:41:24;-0.50;99.90
14783;DHT22;7483;50.498;12.138;2022-12-11T08:43:56;-0.60;99.90
14783;DHT22;7483;50.498;12.138;2022-12-11T08:46:27;-0.50;99.90
14783;DHT22;7483;50.498;12.138;2022-12-11T08:49:01;-0.50;99.90
14783;DHT22;7483;50.498;12.138;2022-12-11T08:51:30;-0.40;99.90
14783;DHT22;7483;50.498;12.138;2022-12-11T08:53:59;-0.30;99.90
14783;DHT22;7483;50.498;12.138;2022-12-11T08:56:28;-0.30;99.90
14783;DHT22;7483;50.498;12.138;2022-12-11T08:58:59;-0.40;99.90
14783;DHT22;7483;50.498;12.138;2022-12-11T09:01:29;-0.30;99.90
14783;DHT22;7483;50.498;12.138;2022-12-11T09:03:58;-0.30;99.90
14783;DHT22;7483;50.498;12.138;2022-12-11T09:06:28;-0.30;99.90
14783;DHT22;7483;50.498;12.138;2022-12-11T09:09:00;-0.30;99.90
14783;DHT22;7483;50.498;12.138;2022-12-11T09:11:31;-0.40;99.90
14783;DHT22;7483;50.498;12.138;2022-12-11T09:14:02;-0.40;99.90
14783;DHT22;7483;50.498;12.138;2022-12-11T09:16:34;-0.40;99.90
14783;DHT22;7483;50.498;12.138;2022-12-11T09:19:07;-0.40;99.90
14783;DHT22;7483;50.498;12.138;2022-12-11T09:21:38;-0.40;99.90
14783;DHT22;7483;50.498;12.138;2022-12-11T09:24:08;-0.40;99.90
14783;DHT22;7483;50.498;12.138;2022-12-11T09:26:37;-0.40;99.90
14783;DHT22;7483;50.498;12.138;2022-12-11T09:29:09;-0.50;99.90
14783;DHT22;7483;50.498;12.138;2022-12-11T09:31:38;-0.50;99.90
14783;DHT22;7483;50.498;12.138;2022-12-11T09:34:10;-0.50;99.90
14783;DHT22;7483;50.498;12.138;2022-12-11T09:36:40;-0.40;99.90
14783;DHT22;7483;50.498;12.138;2022-12-11T09:39:10;-0.40;99.90
14783;DHT22;7483;50.498;12.138;2022-12-11T09:41:46;-0.40;99.90
14783;DHT22;7483;50.498;12.138;2022-12-11T09:44:28;-0.40;99.90
14783;DHT22;7483;50.498;12.138;2022-12-11T09:47:00;-0.30;99.90
14783;DHT22;7483;50.498;12.138;2022-12-11T09:49:34;-0.40;99.90
14783;DHT22;7483;50.498;12.138;2022-12-11T09:52:10;-0.40;99.90
14783;DHT22;7483;50.498;12.138;2022-12-11T09:54:44;-0.30;99.90
14783;DHT22;7483;50.498;12.138;2022-12-11T09:57:36;-0.30;99.90
14783;DHT22;7483;50.498;12.138;2022-12-11T10:00:19;-0.40;99.90
14783;DHT22;7483;50.498;12.138;2022-12-11T10:03:08;-0.40;99.90
14783;DHT22;7483;50.498;12.138;2022-12-11T10:06:13;-0.30;99.90
14783;DHT22;7483;50.498;12.138;2022-12-11T10:08:52;-0.30;99.90
14783;DHT22;7483;50.498;12.138;2022-12-11T10:11:41;-0.20;99.90
14783;DHT22;7483;50.498;12.138;2022-12-11T10:14:28;-0.30;99.90
14783;DHT22;7483;50.498;12.138;2022-12-11T10:17:10;-0.40;99.90
14783;DHT22;7483;50.498;12.138;2022-12-11T10:19:42;-0.30;99.90
14783;DHT22;7483;50.498;12.138;2022-12-11T10:22:16;-0.30;99.90
14783;DHT22;7483;50.498;12.138;2022-12-11T10:24:53;-0.20;99.90
14783;DHT22;7483;50.498;12.138;2022-12-11T10:27:46;-0.20;99.90
14783;DHT22;7483;50.498;12.138;2022-12-11T10:30:18;-0.10;99.90
14783;DHT22;7483;50.498;12.138;2022-12-11T10:32:53;-0.20;99.90
14783;DHT22;7483;50.498;12.138;2022-12-11T10:35:33;-0.20;99.90
14783;DHT22;7483;50.498;12.138;2022-12-11T10:38:12;-0.10;99.90
14783;DHT22;7483;50.498;12.138;2022-12-11T10:40:44;-0.10;99.90
14783;DHT22;7483;50.498;12.138;2022-12-11T10:43:13;0.10;99.90
14783;DHT22;7483;50.498;12.138;2022-12-11T10:45:49;0.20;99.90
14783;DHT22;7483;50.498;12.138;2022-12-11T10:48:22;0.20;99.90
14783;DHT22;7483;50.498;12.138;2022-12-11T10:50:57;0.30;99.90
14783;DHT22;7483;50.498;12.138;2022-12-11T10:53:28;0.20;99.90
14783;DHT22;7483;50.498;12.138;2022-12-11T10:55:59;0.20;99.90
14783;DHT22;7483;50.498;12.138;2022-12-11T10:58:29;0.20;99.90
14783;DHT22;7483;50.498;12.138;2022-12-11T11:01:08;0.20;99.90
14783;DHT22;7483;50.498;12.138;2022-12-11T11:03:53;0.20;99.90
14783;DHT22;7483;50.498;12.138;2022-12-11T11:06:25;0.10;99.90
14783;DHT22;7483;50.498;12.138;2022-12-11T11:08:56;0.10;99.90
14783;DHT22;7483;50.498;12.138;2022-12-11T11:11:28;0.20;99.90
14783;DHT22;7483;50.498;12.138;2022-12-11T11:14:05;0.20;99.90
14783;DHT22;7483;50.498;12.138;2022-12-11T11:16:36;0.10;99.90
14783;DHT22;7483;50.498;12.138;2022-12-11T11:19:13;0.10;99.90
14783;DHT22;7483;50.498;12.138;2022-12-11T11:21:48;0.00;99.90
14783;DHT22;7483;50.498;12.138;2022-12-11T11:24:27;0.10;99.90
14783;DHT22;7483;50.498;12.138;2022-12-11T11:27:12;0.10;99.90
14783;DHT22;7483;50.498;12.138;2022-12-11T11:29:46;0.00;99.90
14783;DHT22;7483;50.498;12.138;2022-12-11T11:32:22;0.00;99.90
14783;DHT22;7483;50.498;12.138;2022-12-11T11:35:16;0.00;99.90
14783;DHT22;7483;50.498;12.138;2022-12-11T11:37:54;0.00;99.90
14783;DHT22;7483;50.498;12.138;2022-12-11T11:40:29;0.00;99.90
14783;DHT22;7483;50.498;12.138;2022-12-11T11:43:06;-0.10;99.90
14783;DHT22;7483;50.498;12.138;2022-12-11T11:45:45;-0.10;99.90
14783;DHT22;7483;50.498;12.138;2022-12-11T11:48:28;-0.10;99.90
14783;DHT22;7483;50.498;12.138;2022-12-11T11:51:11;-0.10;99.90
14783;DHT22;7483;50.498;12.138;2022-12-11T11:53:46;-0.30;99.90
14783;DHT22;7483;50.498;12.138;2022-12-11T11:56:20;-0.30;99.90
14783;DHT22;7483;50.498;12.138;2022-12-11T11:59:03;-0.20;99.90
14783;DHT22;7483;50.498;12.138;2022-12-11T12:01:40;-0.30;99.90
14783;DHT22;7483;50.498;12.138;2022-12-11T12:04:10;-0.20;99.90
14783;DHT22;7483;50.498;12.138;2022-12-11T12:06:56;-0.20;99.90
14783;DHT22;7483;50.498;12.138;2022-12-11T12:09:45;-0.20;99.90
14783;DHT22;7483;50.498;12.138;2022-12-11T12:12:32;-0.10;99.90
14783;DHT22;7483;50.498;12.138;2022-12-11T12:15:14;0.00;99.90
14783;DHT22;7483;50.498;12.138;2022-12-11T12:17:54;0.00;99.90
14783;DHT22;7483;50.498;12.138;2022-12-11T12:20:31;0.00;99.90
14783;DHT22;7483;50.498;12.138;2022-12-11T12:23:32;0.00;99.90
14783;DHT22;7483;50.498;12.138;2022-12-11T12:26:16;0.10;99.90
14783;DHT22;7483;50.498;12.138;2022-12-11T12:29:00;0.00;99.90
14783;DHT22;7483;50.498;12.138;2022-12-11T12:31:47;0.00;99.90
14783;DHT22;7483;50.498;12.138;2022-12-11T12:34:33;0.20;99.90
14783;DHT22;7483;50.498;12.138;2022-12-11T12:37:16;0.30;99.90
14783;DHT22;7483;50.498;12.138;2022-12-11T12:39:58;0.30;99.90
14783;DHT22;7483;50.498;12.138;2022-12-11T12:42:42;0.40;99.90
14783;DHT22;7483;50.498;12.138;2022-12-11T12:45:24;0.40;99.90
14783;DHT22;7483;50.498;12.138;2022-12-11T12:47:55;0.40;99.90
14783;DHT22;7483;50.498;12.138;2022-12-11T12:50:24;0.40;99.90
14783;DHT22;7483;50.498;12.138;2022-12-11T12:52:56;0.30;99.90
14783;DHT22;7483;50.498;12.138;2022-12-11T12:55:27;0.30;99.90
14783;DHT22;7483;50.498;12.138;2022-12-11T12:57:59;0.30;99.90
14783;DHT22;7483;50.498;12.138;2022-12-11T13:00:31;0.30;99.90
14783;DHT22;7483;50.498;12.138;2022-12-11T13:03:14;0.30;99.90
14783;DHT22;7483;50.498;12.138;2022-12-11T13:05:55;0.30;99.90
14783;DHT22;7483;50.498;12.138;2022-12-11T13:08:27;0.30;99.90
14783;DHT22;7483;50.498;12.138;2022-12-11T13:11:02;0.30;99.90
14783;DHT22;7483;50.498;12.138;2022-12-11T13:13:36;0.20;99.90
14783;DHT22;7483;50.498;12.138;2022-12-11T13:18:54;0.30;99.90
14783;DHT22;7483;50.498;12.138;2022-12-11T13:21:28;0.30;99.90
14783;DHT22;7483;50.498;12.138;2022-12-11T13:24:16;0.20;99.90
14783;DHT22;7483;50.498;12.138;2022-12-11T13:26:53;0.20;99.90
14783;DHT22;7483;50.498;12.138;2022-12-11T13:29:30;0.20;99.90
14783;DHT22;7483;50.498;12.138;2022-12-11T13:32:01;0.20;99.90
14783;DHT22;7483;50.498;12.138;2022-12-11T13:34:34;0.20;99.90
14783;DHT22;7483;50.498;12.138;2022-12-11T13:37:05;0.20;99.90
14783;DHT22;7483;50.498;12.138;2022-12-11T13:39:45;0.20;99.90
14783;DHT22;7483;50.498;12.138;2022-12-11T13:42:22;0.10;99.90
14783;DHT22;7483;50.498;12.138;2022-12-11T13:44:54;0.10;99.90
14783;DHT22;7483;50.498;12.138;2022-12-11T13:47:24;0.10;99.90
14783;DHT22;7483;50.498;12.138;2022-12-11T13:50:10;0.10;99.90
14783;DHT22;7483;50.498;12.138;2022-12-11T13:52:51;0.10;99.90
14783;DHT22;7483;50.498;12.138;2022-12-11T13:55:22;0.10;99.90
14783;DHT22;7483;50.498;12.138;2022-12-11T13:57:55;0.10;99.90
14783;DHT22;7483;50.498;12.138;2022-12-11T14:00:26;0.10;99.90
14783;DHT22;7483;50.498;12.138;2022-12-11T14:02:59;0.10;99.90
14783;DHT22;7483;50.498;12.138;2022-12-11T14:05:33;0.10;99.90
14783;DHT22;7483;50.498;12.138;2022-12-11T14:08:05;0.10;99.90
14783;DHT22;7483;50.498;12.138;2022-12-11T14:10:36;0.10;99.90
14783;DHT22;7483;50.498;12.138;2022-12-11T14:13:22;0.00;99.90
14783;DHT22;7483;50.498;12.138;2022-12-11T14:15:53;0.00;99.90
14783;DHT22;7483;50.498;12.138;2022-12-11T14:18:23;-0.10;99.90
14783;DHT22;7483;50.498;12.138;2022-12-11T14:20:55;-0.10;99.90
14783;DHT22;7483;50.498;12.138;2022-12-11T14:23:25;-0.10;99.90
14783;DHT22;7483;50.498;12.138;2022-12-11T14:25:56;-0.10;99.90
14783;DHT22;7483;50.498;12.138;2022-12-11T14:28:28;-0.10;99.90
14783;DHT22;7483;50.498;12.138;2022-12-11T14:31:04;-0.10;99.90
14783;DHT22;7483;50.498;12.138;2022-12-11T14:33:36;-0.10;99.90
14783;DHT22;7483;50.498;12.138;2022-12-11T14:36:09;-0.10;99.90
14783;DHT22;7483;50.498;12.138;2022-12-11T14:38:42;-0.20;99.90
14783;DHT22;7483;50.498;12.138;2022-12-11T14:41:16;-0.20;99.90
14783;DHT22;7483;50.498;12.138;2022-12-11T14:43:51;-0.20;99.90
14783;DHT22;7483;50.498;12.138;2022-12-11T14:46:24;-0.30;99.90
14783;DHT22;7483;50.498;12.138;2022-12-11T14:49:02;-0.40;99.90
14783;DHT22;7483;50.498;12.138;2022-12-11T14:51:37;-0.30;99.90
14783;DHT22;7483;50.498;12.138;2022-12-11T14:54:15;-0.30;99.90
14783;DHT22;7483;50.498;12.138;2022-12-11T14:56:53;-0.30;99.90
14783;DHT22;7483;50.498;12.138;2022-12-11T14:59:25;-0.40;99.90
14783;DHT22;7483;50.498;12.138;2022-12-11T15:01:59;-0.40;99.90
14783;DHT22;7483;50.498;12.138;2022-12-11T15:04:31;-0.40;99.90
14783;DHT22;7483;50.498;12.138;2022-12-11T15:07:00;-0.40;99.90
14783;DHT22;7483;50.498;12.138;2022-12-11T15:09:35;-0.40;99.90
14783;DHT22;7483;50.498;12.138;2022-12-11T15:12:09;-0.40;99.90
14783;DHT22;7483;50.498;12.138;2022-12-11T15:14:47;-0.30;99.90
14783;DHT22;7483;50.498;12.138;2022-12-11T15:17:19;-0.30;99.90
14783;DHT22;7483;50.498;12.138;2022-12-11T15:19:50;-0.30;99.90
14783;DHT22;7483;50.498;12.138;2022-12-11T15:22:30;-0.40;99.90
14783;DHT22;7483;50.498;12.138;2022-12-11T15:24:59;-0.40;99.90
14783;DHT22;7483;50.498;12.138;2022-12-11T15:27:32;-0.40;99.90
14783;DHT22;7483;50.498;12.138;2022-12-11T15:30:14;-0.50;99.90
14783;DHT22;7483;50.498;12.138;2022-12-11T15:33:27;-0.50;99.90
14783;DHT22;7483;50.498;12.138;2022-12-11T15:36:02;-0.60;99.90
14783;DHT22;7483;50.498;12.138;2022-12-11T15:38:34;-0.70;99.90
14783;DHT22;7483;50.498;12.138;2022-12-11T15:41:05;-0.80;99.90
14783;DHT22;7483;50.498;12.138;2022-12-11T15:43:39;-0.80;99.90
14783;DHT22;7483;50.498;12.138;2022-12-11T15:46:09;-0.70;99.90
14783;DHT22;7483;50.498;12.138;2022-12-11T15:48:37;-0.70;99.90
14783;DHT22;7483;50.498;12.138;2022-12-11T15:51:05;-0.70;99.90
14783;DHT22;7483;50.498;12.138;2022-12-11T15:53:34;-0.70;99.90
14783;DHT22;7483;50.498;12.138;2022-12-11T15:56:02;-0.70;99.90
14783;DHT22;7483;50.498;12.138;2022-12-11T15:58:30;-0.70;99.90
14783;DHT22;7483;50.498;12.138;2022-12-11T16:00:59;-0.70;99.90
14783;DHT22;7483;50.498;12.138;2022-12-11T16:03:28;-0.70;99.90
14783;DHT22;7483;50.498;12.138;2022-12-11T16:05:56;-0.70;99.90
14783;DHT22;7483;50.498;12.138;2022-12-11T16:08:25;-0.70;99.90
14783;DHT22;7483;50.498;12.138;2022-12-11T16:10:54;-0.70;99.90
14783;DHT22;7483;50.498;12.138;2022-12-11T16:13:22;-0.70;99.90
14783;DHT22;7483;50.498;12.138;2022-12-11T16:15:51;-0.70;99.90
14783;DHT22;7483;50.498;12.138;2022-12-11T16:18:22;-0.70;99.90